createdAt,value
2019-04-14T00:01:34.836Z,19.50
2019-04-14T00:04:18.204Z,19.50
2019-04-14T00:06:48.359Z,19.50
2019-04-14T00:09:20.578Z,19.40
2019-04-14T00:11:50.468Z,19.40
2019-04-14T00:14:20.790Z,19.30
2019-04-14T00:16:51.028Z,19.40
2019-04-14T00:19:21.498Z,19.30
2019-04-14T00:21:52.234Z,19.30
2019-04-14T00:24:24.918Z,19.30
2019-04-14T00:26:55.216Z,19.30
2019-04-14T00:29:26.516Z,19.30
2019-04-14T00:31:56.982Z,19.30
2019-04-14T00:34:46.524Z,19.30
2019-04-14T00:37:31.499Z,19.30
2019-04-14T00:40:33.040Z,19.30
2019-04-14T00:43:17.577Z,19.30
2019-04-14T00:46:00.561Z,19.30
2019-04-14T00:48:29.915Z,19.30
2019-04-14T00:51:00.488Z,19.30
2019-04-14T00:53:29.963Z,19.30
2019-04-14T00:56:01.967Z,19.30
2019-04-14T00:58:32.195Z,19.30
2019-04-14T01:01:02.724Z,19.30
2019-04-14T01:03:35.190Z,19.30
2019-04-14T01:06:07.541Z,19.30
2019-04-14T01:08:38.003Z,19.30
2019-04-14T01:11:07.647Z,19.30
2019-04-14T01:13:37.536Z,19.30
2019-04-14T01:16:13.946Z,19.30
2019-04-14T01:18:39.346Z,19.30
2019-04-14T01:21:08.944Z,19.30
2019-04-14T01:23:39.416Z,19.20
2019-04-14T01:26:09.313Z,19.30
2019-04-14T01:28:39.926Z,19.20
2019-04-14T01:31:09.848Z,19.20
2019-04-14T01:33:40.146Z,19.30
2019-04-14T01:36:12.670Z,19.30
2019-04-14T01:38:42.832Z,19.20
2019-04-14T01:41:15.007Z,19.20
2019-04-14T01:43:45.246Z,19.30
2019-04-14T01:46:20.897Z,19.30
2019-04-14T01:48:45.556Z,19.20
2019-04-14T01:51:29.046Z,19.30
2019-04-14T01:54:17.719Z,19.30
2019-04-14T01:57:08.920Z,19.30
2019-04-14T01:59:39.129Z,19.30
2019-04-14T02:02:11.889Z,19.30
2019-04-14T02:04:44.185Z,19.30
2019-04-14T02:07:15.017Z,19.30
2019-04-14T02:09:44.635Z,19.30
2019-04-14T02:12:14.874Z,19.30
2019-04-14T02:14:45.178Z,19.30
2019-04-14T02:17:15.375Z,19.20
2019-04-14T02:19:46.017Z,19.30
2019-04-14T02:22:15.947Z,19.30
2019-04-14T02:24:46.031Z,19.30
2019-04-14T02:27:16.662Z,19.30
2019-04-14T02:29:47.248Z,19.30
2019-04-14T02:32:43.435Z,19.30
2019-04-14T02:35:25.557Z,19.30
2019-04-14T02:37:45.151Z,19.20
2019-04-14T02:40:18.589Z,19.30
2019-04-14T02:42:49.244Z,19.30
2019-04-14T02:45:19.304Z,19.30
2019-04-14T02:50:17.748Z,19.20
2019-04-14T02:52:53.766Z,19.20
2019-04-14T02:55:15.607Z,19.20
2019-04-14T02:57:55.516Z,19.20
2019-04-14T03:00:39.084Z,19.20
2019-04-14T03:02:59.544Z,19.20
2019-04-14T03:05:34.356Z,19.20
2019-04-14T03:08:08.390Z,19.20
2019-04-14T03:10:31.891Z,19.20
2019-04-14T03:13:06.820Z,19.20
2019-04-14T03:18:31.774Z,19.20
2019-04-14T03:26:51.642Z,19.20
2019-04-14T03:29:40.745Z,19.20
2019-04-14T03:39:33.491Z,19.20
2019-04-14T03:42:00.948Z,19.30
2019-04-14T03:44:34.780Z,19.30
2019-04-14T03:47:10.939Z,19.30
2019-04-14T03:49:40.710Z,19.30
2019-04-14T03:52:03.253Z,19.30
2019-04-14T03:54:36.665Z,19.30
2019-04-14T03:56:53.628Z,19.20
2019-04-14T03:59:24.026Z,19.20
2019-04-14T04:01:56.438Z,19.30
2019-04-14T04:04:25.264Z,19.20
2019-04-14T04:06:55.359Z,19.30
2019-04-14T04:09:32.136Z,19.20
2019-04-14T04:12:05.179Z,19.20
2019-04-14T04:14:41.946Z,19.20
2019-04-14T04:17:23.312Z,19.20
2019-04-14T04:20:15.196Z,19.20
2019-04-14T04:23:12.326Z,19.20
2019-04-14T04:26:16.825Z,19.20
2019-04-14T04:29:20.696Z,19.20
2019-04-14T04:32:14.066Z,19.20
2019-04-14T04:34:53.436Z,19.30
2019-04-14T04:38:00.815Z,19.20
2019-04-14T04:40:50.712Z,19.20
2019-04-14T04:43:21.260Z,19.20
2019-04-14T04:45:53.707Z,19.20
2019-04-14T04:48:24.218Z,19.20
2019-04-14T04:50:54.854Z,19.20
2019-04-14T04:53:24.476Z,19.20
2019-04-14T04:55:54.652Z,19.20
2019-04-14T04:58:24.150Z,19.10
2019-04-14T05:00:54.918Z,19.20
2019-04-14T05:03:25.407Z,19.10
2019-04-14T05:06:24.833Z,19.10
2019-04-14T05:08:57.138Z,19.10
2019-04-14T05:11:31.706Z,19.10
2019-04-14T05:14:04.382Z,19.10
2019-04-14T05:16:34.616Z,19.20
2019-04-14T05:19:14.007Z,19.20
2019-04-14T05:21:37.132Z,19.20
2019-04-14T05:24:07.097Z,19.20
2019-04-14T05:26:39.882Z,19.20
2019-04-14T05:29:09.971Z,19.20
2019-04-14T05:31:40.351Z,19.20
2019-04-14T05:34:10.744Z,19.30
2019-04-14T05:36:41.092Z,19.20
2019-04-14T05:39:11.345Z,19.20
2019-04-14T05:41:54.438Z,19.30
2019-04-14T05:44:14.217Z,19.50
2019-04-14T05:46:44.700Z,19.40
2019-04-14T05:49:24.521Z,19.40
2019-04-14T05:51:48.144Z,19.30
2019-04-14T05:54:18.714Z,19.30
2019-04-14T05:56:47.890Z,19.30
2019-04-14T05:59:18.357Z,19.30
2019-04-14T06:01:48.761Z,19.30
2019-04-14T06:04:18.049Z,19.30
2019-04-14T06:06:47.230Z,19.20
2019-04-14T06:09:16.457Z,19.00
2019-04-14T06:11:50.302Z,19.00
2019-04-14T06:14:19.655Z,18.90
2019-04-14T06:16:48.865Z,18.90
2019-04-14T06:19:18.338Z,18.90
2019-04-14T06:21:47.563Z,18.80
2019-04-14T06:24:17.000Z,18.90
2019-04-14T06:26:46.358Z,18.90
2019-04-14T06:29:15.566Z,18.90
2019-04-14T06:32:03.761Z,18.90
2019-04-14T06:34:51.911Z,18.90
2019-04-14T06:37:25.419Z,18.90
2019-04-14T06:39:54.675Z,18.80
2019-04-14T06:42:23.886Z,18.90
2019-04-14T06:44:53.097Z,18.90
2019-04-14T06:47:22.350Z,18.80
2019-04-14T06:49:51.553Z,18.90
2019-04-14T06:52:20.779Z,18.90
2019-04-14T06:54:49.979Z,18.90
2019-04-14T06:57:19.201Z,18.80
2019-04-14T06:59:48.402Z,18.80
2019-04-14T07:02:17.758Z,18.80
2019-04-14T07:04:47.050Z,18.80
2019-04-14T07:07:16.231Z,18.80
2019-04-14T07:09:45.442Z,18.80
2019-04-14T07:12:14.667Z,18.90
2019-04-14T07:14:43.922Z,18.90
2019-04-14T07:17:13.177Z,18.90
2019-04-14T07:19:42.378Z,19.00
2019-04-14T07:22:11.613Z,19.00
2019-04-14T07:24:40.806Z,19.00
2019-04-14T07:27:10.017Z,19.10
2019-04-14T07:29:45.505Z,19.10
2019-04-14T07:32:43.007Z,19.10
2019-04-14T07:35:24.431Z,19.40
2019-04-14T07:38:27.712Z,19.50
2019-04-14T07:41:09.581Z,19.30
2019-04-14T07:43:55.883Z,19.20
2019-04-14T07:46:34.167Z,19.10
2019-04-14T07:49:20.778Z,19.10
2019-04-14T07:52:07.450Z,19.00
2019-04-14T07:54:44.337Z,18.90
2019-04-14T07:57:32.253Z,18.90
2019-04-14T08:00:14.025Z,18.90
2019-04-14T08:03:05.182Z,18.90
2019-04-14T08:05:38.601Z,18.90
2019-04-14T08:08:08.299Z,18.90
2019-04-14T08:10:37.540Z,18.80
2019-04-14T08:13:06.778Z,18.80
2019-04-14T08:15:35.981Z,18.80
2019-04-14T08:18:05.167Z,18.80
2019-04-14T08:20:35.097Z,18.80
2019-04-14T08:23:05.214Z,18.80
2019-04-14T08:25:34.707Z,18.80
2019-04-14T08:28:03.941Z,18.80
2019-04-14T08:30:33.114Z,18.90
2019-04-14T08:33:02.317Z,18.90
2019-04-14T08:35:31.577Z,18.90
2019-04-14T08:38:00.767Z,19.00
2019-04-14T08:40:30.021Z,19.00
2019-04-14T08:43:24.015Z,19.00
2019-04-14T08:46:21.159Z,19.00
2019-04-14T08:49:01.485Z,19.00
2019-04-14T08:51:49.662Z,19.00
2019-04-14T08:54:26.343Z,19.00
2019-04-14T08:57:16.861Z,19.00
2019-04-14T09:00:04.997Z,19.00
2019-04-14T09:02:56.189Z,19.00
2019-04-14T09:05:45.250Z,19.00
2019-04-14T09:08:33.414Z,19.00
2019-04-14T09:11:04.070Z,18.90
2019-04-14T09:13:33.258Z,18.90
2019-04-14T09:16:02.487Z,18.90
2019-04-14T09:18:31.701Z,18.90
2019-04-14T09:21:00.885Z,18.80
2019-04-14T09:23:30.131Z,18.80
2019-04-14T09:25:59.336Z,18.80
2019-04-14T09:28:28.514Z,18.80
2019-04-14T09:30:57.760Z,18.80
2019-04-14T09:33:26.927Z,18.80
2019-04-14T09:35:56.176Z,18.80
2019-04-14T09:38:25.517Z,18.90
2019-04-14T09:40:54.721Z,18.80
2019-04-14T09:43:23.929Z,18.90
2019-04-14T09:45:53.214Z,18.90
2019-04-14T09:48:22.401Z,18.90
2019-04-14T09:51:03.877Z,19.00
2019-04-14T09:53:22.635Z,19.00
2019-04-14T09:55:51.832Z,19.00
2019-04-14T09:58:21.058Z,19.00
2019-04-14T10:00:50.277Z,19.00
2019-04-14T10:03:19.506Z,19.00
2019-04-14T10:05:48.674Z,19.00
2019-04-14T10:08:17.903Z,19.00
2019-04-14T10:10:47.590Z,19.00
2019-04-14T10:13:16.811Z,19.00
2019-04-14T10:15:46.014Z,19.00
2019-04-14T10:18:15.225Z,19.00
2019-04-14T10:20:44.421Z,18.90
2019-04-14T10:23:14.014Z,18.90
2019-04-14T10:25:43.171Z,18.90
2019-04-14T10:28:12.375Z,18.90
2019-04-14T10:30:41.521Z,18.90
2019-04-14T10:33:10.701Z,18.80
2019-04-14T10:35:39.901Z,18.80
2019-04-14T10:38:09.118Z,18.80
2019-04-14T10:40:38.346Z,18.80
2019-04-14T10:43:07.640Z,18.80
2019-04-14T10:45:36.850Z,18.80
2019-04-14T10:48:06.475Z,18.80
2019-04-14T10:50:35.681Z,18.80
2019-04-14T10:53:04.878Z,18.80
2019-04-14T10:55:34.465Z,18.90
2019-04-14T10:58:03.987Z,18.90
2019-04-14T11:00:33.538Z,18.90
2019-04-14T11:03:02.807Z,18.90
2019-04-14T11:05:40.115Z,19.00
2019-04-14T11:08:09.338Z,19.00
2019-04-14T11:10:38.541Z,19.00
2019-04-14T11:13:07.734Z,19.00
2019-04-14T11:15:36.981Z,19.00
2019-04-14T11:18:06.197Z,19.00
2019-04-14T11:20:35.727Z,19.00
2019-04-14T11:23:05.008Z,19.00
2019-04-14T11:25:34.256Z,19.00
2019-04-14T11:28:03.453Z,19.00
2019-04-14T11:30:33.627Z,19.00
2019-04-14T11:33:17.633Z,19.00
2019-04-14T11:36:11.843Z,18.90
2019-04-14T11:38:46.161Z,18.90
2019-04-14T11:41:18.818Z,18.90
2019-04-14T11:43:48.137Z,18.80
2019-04-14T11:46:17.396Z,18.80
2019-04-14T11:48:46.673Z,19.00
2019-04-14T11:51:15.905Z,19.10
2019-04-14T11:53:45.074Z,19.20
2019-04-14T11:56:14.288Z,19.20
2019-04-14T11:58:43.514Z,19.20
2019-04-14T12:01:26.069Z,19.20
2019-04-14T12:04:07.364Z,19.20
2019-04-14T12:07:07.417Z,19.30
2019-04-14T12:09:42.983Z,19.20
2019-04-14T12:12:16.343Z,19.20
2019-04-14T12:14:46.675Z,19.10
2019-04-14T12:17:15.901Z,19.10
2019-04-14T12:19:57.194Z,19.10
2019-04-14T12:22:26.396Z,19.10
2019-04-14T12:24:56.271Z,19.10
2019-04-14T12:27:25.667Z,19.10
2019-04-14T12:29:56.671Z,19.10
2019-04-14T12:32:30.378Z,19.10
2019-04-14T12:34:59.670Z,19.10
2019-04-14T12:37:29.281Z,19.10
2019-04-14T12:40:03.178Z,19.10
2019-04-14T12:42:38.835Z,19.20
2019-04-14T12:45:32.341Z,19.30
2019-04-14T12:48:18.172Z,19.30
2019-04-14T12:50:54.186Z,19.30
2019-04-14T12:53:23.439Z,19.40
2019-04-14T12:55:52.898Z,19.40
2019-04-14T12:58:34.181Z,19.40
2019-04-14T13:01:10.282Z,19.40
2019-04-14T13:03:42.124Z,19.40
2019-04-14T13:06:13.131Z,19.40
2019-04-14T13:08:42.338Z,19.50
2019-04-14T13:11:12.247Z,19.40
2019-04-14T13:13:44.718Z,19.50
2019-04-14T13:16:17.947Z,19.40
2019-04-14T13:18:49.102Z,19.40
2019-04-14T13:21:18.714Z,19.40
2019-04-14T13:23:48.542Z,19.40
2019-04-14T13:26:17.805Z,19.40
2019-04-14T13:28:48.736Z,19.40
2019-04-14T13:31:18.350Z,19.40
2019-04-14T13:33:47.584Z,19.30
2019-04-14T13:36:17.955Z,19.30
2019-04-14T13:38:48.364Z,19.30
2019-04-14T13:41:18.743Z,19.30
2019-04-14T13:43:52.092Z,19.30
2019-04-14T13:46:22.599Z,19.30
2019-04-14T13:48:55.422Z,19.20
2019-04-14T13:51:24.667Z,19.20
2019-04-14T13:53:53.966Z,19.20
2019-04-14T13:56:23.205Z,19.20
2019-04-14T13:58:52.783Z,19.20
2019-04-14T14:01:25.325Z,19.20
2019-04-14T14:03:54.610Z,19.20
2019-04-14T14:06:37.510Z,19.20
2019-04-14T14:09:11.147Z,19.20
2019-04-14T14:11:48.758Z,19.20
2019-04-14T14:14:31.272Z,19.20
2019-04-14T14:17:07.355Z,19.20
2019-04-14T14:20:01.699Z,19.20
2019-04-14T14:22:59.536Z,19.20
2019-04-14T14:25:29.273Z,19.20
2019-04-14T14:27:58.569Z,19.20
2019-04-14T14:30:27.775Z,19.20
2019-04-14T14:32:57.083Z,19.10
2019-04-14T14:35:26.415Z,19.10
2019-04-14T14:37:55.602Z,19.10
2019-04-14T14:40:25.307Z,19.10
2019-04-14T14:42:54.540Z,19.10
2019-04-14T14:45:51.969Z,19.00
2019-04-14T14:48:33.350Z,19.00
2019-04-14T14:51:06.939Z,19.00
2019-04-14T14:53:36.137Z,19.00
2019-04-14T14:56:05.392Z,18.90
2019-04-14T14:58:34.634Z,18.90
2019-04-14T15:01:04.721Z,18.90
2019-04-14T15:03:33.919Z,18.90
2019-04-14T15:06:03.534Z,18.90
2019-04-14T15:08:32.805Z,18.80
2019-04-14T15:11:04.190Z,18.80
2019-04-14T15:13:32.959Z,18.90
2019-04-14T15:16:02.249Z,18.80
2019-04-14T15:18:31.467Z,18.90
2019-04-14T15:21:00.778Z,19.00
2019-04-14T15:23:30.004Z,19.10
2019-04-14T15:25:59.150Z,19.20
2019-04-14T15:28:28.691Z,19.30
2019-04-14T15:30:57.911Z,19.20
2019-04-14T15:33:27.477Z,19.20
2019-04-14T15:35:56.648Z,19.30
2019-04-14T15:38:25.889Z,19.30
2019-04-14T15:40:55.162Z,19.20
2019-04-14T15:43:24.371Z,19.20
2019-04-14T15:45:53.597Z,19.10
2019-04-14T15:48:22.818Z,19.10
2019-04-14T15:50:52.037Z,19.10
2019-04-14T15:53:21.342Z,19.00
2019-04-14T15:55:50.656Z,19.00
2019-04-14T15:58:37.865Z,19.20
2019-04-14T16:01:24.109Z,19.30
2019-04-14T16:04:11.372Z,19.40
2019-04-14T16:07:01.778Z,19.40
2019-04-14T16:09:43.913Z,19.60
2019-04-14T16:12:41.142Z,19.70
2019-04-14T16:15:25.901Z,19.80
2019-04-14T16:18:14.055Z,19.80
2019-04-14T16:20:44.709Z,19.80
2019-04-14T16:23:13.888Z,19.80
2019-04-14T16:25:54.919Z,19.70
2019-04-14T16:28:41.934Z,19.50
2019-04-14T16:31:36.223Z,19.30
2019-04-14T16:34:14.817Z,19.30
2019-04-14T16:36:45.094Z,19.20
2019-04-14T16:39:14.283Z,19.10
2019-04-14T16:41:43.522Z,19.00
2019-04-14T16:44:12.775Z,19.00
2019-04-14T16:46:42.232Z,19.00
2019-04-14T16:49:11.538Z,19.00
2019-04-14T16:51:59.779Z,19.00
2019-04-14T16:54:48.151Z,19.00
2019-04-14T16:57:35.613Z,19.00
2019-04-14T17:00:06.233Z,19.00
2019-04-14T17:02:35.509Z,19.00
2019-04-14T17:05:05.852Z,19.10
2019-04-14T17:07:35.011Z,19.00
2019-04-14T17:10:04.345Z,19.10
2019-04-14T17:12:33.571Z,19.00
2019-04-14T17:15:28.077Z,19.00
2019-04-14T17:18:27.546Z,19.10
2019-04-14T17:21:20.138Z,19.10
2019-04-14T17:23:56.759Z,19.10
2019-04-14T17:26:52.268Z,19.10
2019-04-14T17:29:39.443Z,19.20
2019-04-14T17:32:22.671Z,19.00
2019-04-14T17:34:59.467Z,18.90
2019-04-14T17:37:47.573Z,18.70
2019-04-14T17:40:34.579Z,18.70
2019-04-14T17:43:10.924Z,18.70
2019-04-14T17:45:50.679Z,19.00
2019-04-14T17:48:38.038Z,19.20
2019-04-14T17:51:12.284Z,19.20
2019-04-14T17:53:52.796Z,19.20
2019-04-14T17:56:40.389Z,19.30
2019-04-14T17:59:27.574Z,19.40
2019-04-14T18:02:21.731Z,19.40
2019-04-14T18:05:16.035Z,18.70
2019-04-14T18:07:52.729Z,18.50
2019-04-14T18:10:42.761Z,18.80
2019-04-14T18:13:20.917Z,19.00
2019-04-14T18:16:06.135Z,19.20
2019-04-14T18:18:59.943Z,19.20
2019-04-14T18:21:29.878Z,19.20
2019-04-14T18:23:59.498Z,19.30
2019-04-14T18:26:28.840Z,19.30
2019-04-14T18:29:17.198Z,19.40
2019-04-14T18:31:54.963Z,19.40
2019-04-14T18:34:39.401Z,19.40
2019-04-14T18:37:27.586Z,19.50
2019-04-14T18:40:12.397Z,19.50
2019-04-14T18:43:09.534Z,19.50
2019-04-14T18:45:43.009Z,19.60
2019-04-14T18:48:37.514Z,19.60
2019-04-14T18:51:32.141Z,19.60
2019-04-14T18:54:09.452Z,19.60
2019-04-14T18:57:06.886Z,19.60
2019-04-14T18:59:58.455Z,19.60
2019-04-14T19:02:28.060Z,19.60
2019-04-14T19:04:58.345Z,19.70
2019-04-14T19:07:32.002Z,19.70
2019-04-14T19:10:04.616Z,19.60
2019-04-14T19:12:39.347Z,19.70
2019-04-14T19:15:27.680Z,19.70
2019-04-14T19:18:01.624Z,19.60
2019-04-14T19:20:31.334Z,19.60
2019-04-14T19:23:00.620Z,19.60
2019-04-14T19:25:30.667Z,19.50
2019-04-14T19:28:02.988Z,19.50
2019-04-14T19:30:32.291Z,19.50
2019-04-14T19:33:02.183Z,19.50
2019-04-14T19:35:31.399Z,19.50
2019-04-14T19:38:00.671Z,19.50
2019-04-14T19:40:30.069Z,19.50
2019-04-14T19:43:00.225Z,19.40
2019-04-14T19:45:29.529Z,19.40
2019-04-14T19:47:59.358Z,19.40
2019-04-14T19:50:28.965Z,19.50
2019-04-14T19:52:58.416Z,19.40
2019-04-14T19:55:27.815Z,19.40
2019-04-14T19:58:02.254Z,19.40
2019-04-14T20:00:32.229Z,19.40
2019-04-14T20:03:01.849Z,19.40
2019-04-14T20:05:31.197Z,19.30
2019-04-14T20:08:00.810Z,19.30
2019-04-14T20:10:30.644Z,19.30
2019-04-14T20:12:59.993Z,19.30
2019-04-14T20:15:36.818Z,19.30
2019-04-14T20:18:20.036Z,19.40
2019-04-14T20:21:26.455Z,19.40
2019-04-14T20:24:08.170Z,19.40
2019-04-14T20:26:59.677Z,19.50
2019-04-14T20:29:37.551Z,19.50
2019-04-14T20:32:13.054Z,19.60
2019-04-14T20:34:42.338Z,19.60
2019-04-14T20:37:12.182Z,19.60
2019-04-14T20:39:41.546Z,19.70
2019-04-14T20:42:11.646Z,19.70
2019-04-14T20:44:40.833Z,19.70
2019-04-14T20:47:12.816Z,19.70
2019-04-14T20:49:48.447Z,19.70
2019-04-14T20:52:18.362Z,19.70
2019-04-14T20:54:47.591Z,19.70
2019-04-14T20:57:17.245Z,19.70
2019-04-14T20:59:46.580Z,19.70
2019-04-14T21:02:43.924Z,19.60
2019-04-14T21:05:33.301Z,19.60
2019-04-14T21:08:39.658Z,19.60
2019-04-14T21:11:32.122Z,19.50
2019-04-14T21:14:10.864Z,19.50
2019-04-14T21:16:50.388Z,19.50
2019-04-14T21:19:23.905Z,19.50
2019-04-14T21:22:03.025Z,19.40
2019-04-14T21:25:00.239Z,19.40
2019-04-14T21:27:42.689Z,19.40
2019-04-14T21:30:42.811Z,19.40
2019-04-14T21:33:32.419Z,19.30
2019-04-14T21:36:23.775Z,19.30
2019-04-14T21:39:15.733Z,19.30
2019-04-14T21:41:46.050Z,19.20
2019-04-14T21:44:15.369Z,19.20
2019-04-14T21:46:44.563Z,19.20
2019-04-14T21:49:14.266Z,19.10
2019-04-14T21:51:53.694Z,19.10
2019-04-14T21:54:22.965Z,19.10
2019-04-14T21:57:16.997Z,19.10
2019-04-14T22:00:06.155Z,19.10
2019-04-14T22:02:53.053Z,19.00
2019-04-14T22:05:31.462Z,19.00
2019-04-14T22:08:09.690Z,19.00
2019-04-14T22:10:54.398Z,19.00
2019-04-14T22:13:24.227Z,19.00
2019-04-14T22:15:53.556Z,19.00
2019-04-14T22:18:22.933Z,19.10
2019-04-14T22:20:52.114Z,19.20
2019-04-14T22:23:21.756Z,19.30
2019-04-14T22:25:51.271Z,19.30
2019-04-14T22:28:20.450Z,19.40
2019-04-14T22:30:50.690Z,19.40
2019-04-14T22:33:20.366Z,19.50
2019-04-14T22:35:49.581Z,19.50
2019-04-14T22:38:18.825Z,19.50
2019-04-14T22:40:47.998Z,19.50
2019-04-14T22:43:17.322Z,19.60
2019-04-14T22:45:46.545Z,19.60
2019-04-14T22:48:15.716Z,19.60
2019-04-14T22:50:44.945Z,19.60
2019-04-14T22:53:14.138Z,19.60
2019-04-14T22:55:43.338Z,19.60
2019-04-14T22:58:12.535Z,19.60
2019-04-14T23:00:58.787Z,19.60
2019-04-14T23:03:36.447Z,19.60
2019-04-14T23:06:27.918Z,19.50
2019-04-14T23:09:01.584Z,19.50
2019-04-14T23:11:53.726Z,19.50
2019-04-14T23:14:27.853Z,19.50
2019-04-14T23:17:14.662Z,19.50
2019-04-14T23:19:47.768Z,19.40
2019-04-14T23:22:25.065Z,19.50
2019-04-14T23:24:54.669Z,19.40
2019-04-14T23:27:24.262Z,19.40
2019-04-14T23:29:53.444Z,19.40
2019-04-14T23:32:22.937Z,19.30
2019-04-14T23:34:52.113Z,19.30
2019-04-14T23:37:21.363Z,19.30
2019-04-14T23:39:50.561Z,19.30
2019-04-14T23:42:19.967Z,19.20
2019-04-14T23:44:49.202Z,19.30
2019-04-14T23:47:18.745Z,19.30
2019-04-14T23:49:48.034Z,19.20
2019-04-14T23:52:17.277Z,19.20
2019-04-14T23:54:46.478Z,19.20
2019-04-14T23:57:15.675Z,19.20
2019-04-14T23:59:44.989Z,19.20
